sensor_id;sensor_type;location;lat;lon;timestamp;temperature;humidity
21787;DHT22;11055;50.870;4.316;2023-03-29T00:00:23;9.20;99.90
21787;DHT22;11055;50.870;4.316;2023-03-29T00:02:50;9.10;99.90
21787;DHT22;11055;50.870;4.316;2023-03-29T00:05:18;9.20;99.90
21787;DHT22;11055;50.870;4.316;2023-03-29T00:07:48;9.20;99.90
21787;DHT22;11055;50.870;4.316;2023-03-29T00:10:22;9.30;99.90
21787;DHT22;11055;50.870;4.316;2023-03-29T00:12:48;9.30;99.90
21787;DHT22;11055;50.870;4.316;2023-03-29T00:15:17;9.20;99.90
21787;DHT22;11055;50.870;4.316;2023-03-29T00:17:43;9.20;99.90
21787;DHT22;11055;50.870;4.316;2023-03-29T00:20:09;9.20;99.90
21787;DHT22;11055;50.870;4.316;2023-03-29T00:22:39;9.20;99.90
21787;DHT22;11055;50.870;4.316;2023-03-29T00:25:07;9.20;99.90
21787;DHT22;11055;50.870;4.316;2023-03-29T00:27:33;9.20;99.90
21787;DHT22;11055;50.870;4.316;2023-03-29T00:29:58;9.20;99.90
21787;DHT22;11055;50.870;4.316;2023-03-29T00:32:25;9.20;99.90
21787;DHT22;11055;50.870;4.316;2023-03-29T00:34:50;9.20;99.90
21787;DHT22;11055;50.870;4.316;2023-03-29T00:37:17;9.20;99.90
21787;DHT22;11055;50.870;4.316;2023-03-29T00:39:45;9.30;99.90
21787;DHT22;11055;50.870;4.316;2023-03-29T00:42:12;9.30;99.90
21787;DHT22;11055;50.870;4.316;2023-03-29T00:47:47;9.30;99.90
21787;DHT22;11055;50.870;4.316;2023-03-29T00:50:21;9.30;99.90
21787;DHT22;11055;50.870;4.316;2023-03-29T00:53:05;9.20;99.90
21787;DHT22;11055;50.870;4.316;2023-03-29T00:55:42;9.30;99.90
21787;DHT22;11055;50.870;4.316;2023-03-29T00:58:10;9.30;99.90
21787;DHT22;11055;50.870;4.316;2023-03-29T01:00:45;9.40;99.90
21787;DHT22;11055;50.870;4.316;2023-03-29T01:03:13;9.40;99.90
21787;DHT22;11055;50.870;4.316;2023-03-29T01:05:52;9.50;99.90
21787;DHT22;11055;50.870;4.316;2023-03-29T01:08:28;9.50;99.90
21787;DHT22;11055;50.870;4.316;2023-03-29T01:11:02;9.50;99.90
21787;DHT22;11055;50.870;4.316;2023-03-29T01:13:54;9.50;99.90
21787;DHT22;11055;50.870;4.316;2023-03-29T01:16:24;9.60;99.90
21787;DHT22;11055;50.870;4.316;2023-03-29T01:18:51;9.60;99.90
21787;DHT22;11055;50.870;4.316;2023-03-29T01:21:24;9.80;99.90
21787;DHT22;11055;50.870;4.316;2023-03-29T01:27:02;9.90;99.90
21787;DHT22;11055;50.870;4.316;2023-03-29T01:29:43;10.00;99.90
21787;DHT22;11055;50.870;4.316;2023-03-29T01:32:20;9.80;99.90
21787;DHT22;11055;50.870;4.316;2023-03-29T01:34:55;9.90;99.90
21787;DHT22;11055;50.870;4.316;2023-03-29T01:37:35;10.00;99.90
21787;DHT22;11055;50.870;4.316;2023-03-29T01:40:02;10.20;99.90
21787;DHT22;11055;50.870;4.316;2023-03-29T01:43:38;10.30;99.90
21787;DHT22;11055;50.870;4.316;2023-03-29T01:45:48;10.30;99.90
21787;DHT22;11055;50.870;4.316;2023-03-29T01:48:24;10.20;99.90
21787;DHT22;11055;50.870;4.316;2023-03-29T01:51:38;10.10;99.90
21787;DHT22;11055;50.870;4.316;2023-03-29T01:56:20;10.10;99.90
21787;DHT22;11055;50.870;4.316;2023-03-29T01:58:51;10.10;99.90
21787;DHT22;11055;50.870;4.316;2023-03-29T02:01:21;10.10;99.90
21787;DHT22;11055;50.870;4.316;2023-03-29T02:03:53;10.00;99.90
21787;DHT22;11055;50.870;4.316;2023-03-29T02:06:22;10.10;99.90
21787;DHT22;11055;50.870;4.316;2023-03-29T02:08:50;10.00;99.90
21787;DHT22;11055;50.870;4.316;2023-03-29T02:11:18;10.00;99.90
21787;DHT22;11055;50.870;4.316;2023-03-29T02:13:45;10.00;99.90
21787;DHT22;11055;50.870;4.316;2023-03-29T02:16:12;9.90;99.90
21787;DHT22;11055;50.870;4.316;2023-03-29T02:18:41;9.90;99.90
21787;DHT22;11055;50.870;4.316;2023-03-29T02:21:11;10.00;99.90
21787;DHT22;11055;50.870;4.316;2023-03-29T02:23:43;9.90;99.90
21787;DHT22;11055;50.870;4.316;2023-03-29T02:26:10;9.90;99.90
21787;DHT22;11055;50.870;4.316;2023-03-29T02:28:39;9.80;99.90
21787;DHT22;11055;50.870;4.316;2023-03-29T02:36:46;9.90;99.90
21787;DHT22;11055;50.870;4.316;2023-03-29T02:39:15;9.90;99.90
21787;DHT22;11055;50.870;4.316;2023-03-29T02:41:44;9.80;99.90
21787;DHT22;11055;50.870;4.316;2023-03-29T02:44:13;9.80;99.90
21787;DHT22;11055;50.870;4.316;2023-03-29T02:46:41;9.80;99.90
21787;DHT22;11055;50.870;4.316;2023-03-29T02:49:09;9.70;99.90
21787;DHT22;11055;50.870;4.316;2023-03-29T02:51:36;9.60;99.90
21787;DHT22;11055;50.870;4.316;2023-03-29T02:54:13;9.60;99.90
21787;DHT22;11055;50.870;4.316;2023-03-29T02:56:45;9.70;99.90
21787;DHT22;11055;50.870;4.316;2023-03-29T02:59:12;9.70;99.90
21787;DHT22;11055;50.870;4.316;2023-03-29T03:01:39;9.70;99.90
21787;DHT22;11055;50.870;4.316;2023-03-29T03:04:10;9.70;99.90
21787;DHT22;11055;50.870;4.316;2023-03-29T03:06:39;9.60;99.90
21787;DHT22;11055;50.870;4.316;2023-03-29T03:09:06;9.70;99.90
21787;DHT22;11055;50.870;4.316;2023-03-29T03:11:32;9.70;99.90
21787;DHT22;11055;50.870;4.316;2023-03-29T03:13:58;9.70;99.90
21787;DHT22;11055;50.870;4.316;2023-03-29T03:16:24;9.80;99.90
21787;DHT22;11055;50.870;4.316;2023-03-29T03:18:51;9.80;99.90
21787;DHT22;11055;50.870;4.316;2023-03-29T03:21:18;9.80;99.90
21787;DHT22;11055;50.870;4.316;2023-03-29T03:23:45;9.80;99.90
21787;DHT22;11055;50.870;4.316;2023-03-29T03:26:12;9.90;99.90
21787;DHT22;11055;50.870;4.316;2023-03-29T03:28:37;9.90;99.90
21787;DHT22;11055;50.870;4.316;2023-03-29T03:31:04;10.00;99.90
21787;DHT22;11055;50.870;4.316;2023-03-29T03:33:29;10.00;99.90
21787;DHT22;11055;50.870;4.316;2023-03-29T03:35:55;10.20;99.90
21787;DHT22;11055;50.870;4.316;2023-03-29T03:38:28;10.00;99.90
21787;DHT22;11055;50.870;4.316;2023-03-29T03:40:56;9.90;99.90
21787;DHT22;11055;50.870;4.316;2023-03-29T03:43:22;9.70;99.90
21787;DHT22;11055;50.870;4.316;2023-03-29T03:45:48;9.70;99.90
21787;DHT22;11055;50.870;4.316;2023-03-29T03:48:14;9.60;99.90
21787;DHT22;11055;50.870;4.316;2023-03-29T03:50:39;9.60;99.90
21787;DHT22;11055;50.870;4.316;2023-03-29T03:53:05;9.70;99.90
21787;DHT22;11055;50.870;4.316;2023-03-29T03:55:32;9.80;99.90
21787;DHT22;11055;50.870;4.316;2023-03-29T03:57:57;9.80;99.90
21787;DHT22;11055;50.870;4.316;2023-03-29T04:00:24;9.90;99.90
21787;DHT22;11055;50.870;4.316;2023-03-29T04:02:51;9.80;99.90
21787;DHT22;11055;50.870;4.316;2023-03-29T04:05:18;9.80;99.90
21787;DHT22;11055;50.870;4.316;2023-03-29T04:07:44;9.70;99.90
21787;DHT22;11055;50.870;4.316;2023-03-29T04:10:10;9.70;99.90
21787;DHT22;11055;50.870;4.316;2023-03-29T04:12:36;9.70;99.90
21787;DHT22;11055;50.870;4.316;2023-03-29T04:15:02;9.60;99.90
21787;DHT22;11055;50.870;4.316;2023-03-29T04:17:28;9.60;99.90
21787;DHT22;11055;50.870;4.316;2023-03-29T04:19:54;9.50;99.90
21787;DHT22;11055;50.870;4.316;2023-03-29T04:22:20;9.50;99.90
21787;DHT22;11055;50.870;4.316;2023-03-29T04:24:45;9.50;99.90
21787;DHT22;11055;50.870;4.316;2023-03-29T04:27:11;9.60;99.90
21787;DHT22;11055;50.870;4.316;2023-03-29T04:29:37;9.70;99.90
21787;DHT22;11055;50.870;4.316;2023-03-29T04:32:02;9.70;99.90
21787;DHT22;11055;50.870;4.316;2023-03-29T04:34:28;9.70;99.90
21787;DHT22;11055;50.870;4.316;2023-03-29T04:36:53;9.70;99.90
21787;DHT22;11055;50.870;4.316;2023-03-29T04:39:19;9.80;99.90
21787;DHT22;11055;50.870;4.316;2023-03-29T04:41:46;9.90;99.90
21787;DHT22;11055;50.870;4.316;2023-03-29T04:44:12;10.00;99.90
21787;DHT22;11055;50.870;4.316;2023-03-29T04:46:39;10.20;99.90
21787;DHT22;11055;50.870;4.316;2023-03-29T04:49:05;10.20;99.90
21787;DHT22;11055;50.870;4.316;2023-03-29T04:51:31;10.30;99.90
21787;DHT22;11055;50.870;4.316;2023-03-29T04:53:58;10.30;99.90
21787;DHT22;11055;50.870;4.316;2023-03-29T04:56:23;10.30;99.90
21787;DHT22;11055;50.870;4.316;2023-03-29T04:58:50;10.30;99.90
21787;DHT22;11055;50.870;4.316;2023-03-29T05:01:16;10.20;99.90
21787;DHT22;11055;50.870;4.316;2023-03-29T05:03:43;10.20;99.90
21787;DHT22;11055;50.870;4.316;2023-03-29T05:06:10;10.10;99.90
21787;DHT22;11055;50.870;4.316;2023-03-29T05:08:37;9.90;99.90
21787;DHT22;11055;50.870;4.316;2023-03-29T05:11:07;9.80;99.90
21787;DHT22;11055;50.870;4.316;2023-03-29T05:13:34;9.80;99.90
21787;DHT22;11055;50.870;4.316;2023-03-29T05:16:00;10.00;99.90
21787;DHT22;11055;50.870;4.316;2023-03-29T05:18:27;10.10;99.90
21787;DHT22;11055;50.870;4.316;2023-03-29T05:20:54;10.20;99.90
21787;DHT22;11055;50.870;4.316;2023-03-29T05:23:20;10.20;99.90
21787;DHT22;11055;50.870;4.316;2023-03-29T05:25:47;10.30;99.90
21787;DHT22;11055;50.870;4.316;2023-03-29T05:28:14;10.40;99.90
21787;DHT22;11055;50.870;4.316;2023-03-29T05:30:39;10.40;99.90
21787;DHT22;11055;50.870;4.316;2023-03-29T05:33:05;10.50;99.90
21787;DHT22;11055;50.870;4.316;2023-03-29T05:35:32;10.70;99.90
21787;DHT22;11055;50.870;4.316;2023-03-29T05:37:58;10.80;99.90
21787;DHT22;11055;50.870;4.316;2023-03-29T05:40:25;10.50;99.90
21787;DHT22;11055;50.870;4.316;2023-03-29T05:42:51;10.40;99.90
21787;DHT22;11055;50.870;4.316;2023-03-29T05:45:17;10.30;99.90
21787;DHT22;11055;50.870;4.316;2023-03-29T05:47:43;10.30;99.90
21787;DHT22;11055;50.870;4.316;2023-03-29T05:50:09;10.30;99.90
21787;DHT22;11055;50.870;4.316;2023-03-29T05:52:37;10.30;99.90
21787;DHT22;11055;50.870;4.316;2023-03-29T05:55:04;10.30;99.90
21787;DHT22;11055;50.870;4.316;2023-03-29T05:57:30;10.20;99.90
21787;DHT22;11055;50.870;4.316;2023-03-29T05:59:56;10.30;99.90
21787;DHT22;11055;50.870;4.316;2023-03-29T06:02:22;10.40;99.90
21787;DHT22;11055;50.870;4.316;2023-03-29T06:04:49;10.50;99.90
21787;DHT22;11055;50.870;4.316;2023-03-29T06:07:14;10.50;99.90
21787;DHT22;11055;50.870;4.316;2023-03-29T06:09:41;10.50;99.90
21787;DHT22;11055;50.870;4.316;2023-03-29T06:12:09;10.40;99.90
21787;DHT22;11055;50.870;4.316;2023-03-29T06:14:34;10.60;99.90
21787;DHT22;11055;50.870;4.316;2023-03-29T06:17:01;10.60;99.90
21787;DHT22;11055;50.870;4.316;2023-03-29T06:19:27;10.50;99.90
21787;DHT22;11055;50.870;4.316;2023-03-29T06:21:53;10.40;99.90
21787;DHT22;11055;50.870;4.316;2023-03-29T06:24:19;10.40;99.90
21787;DHT22;11055;50.870;4.316;2023-03-29T06:26:45;10.40;99.90
21787;DHT22;11055;50.870;4.316;2023-03-29T06:29:11;10.40;99.90
21787;DHT22;11055;50.870;4.316;2023-03-29T06:31:37;10.40;99.90
21787;DHT22;11055;50.870;4.316;2023-03-29T06:34:03;10.50;99.90
21787;DHT22;11055;50.870;4.316;2023-03-29T06:36:29;10.50;99.90
21787;DHT22;11055;50.870;4.316;2023-03-29T06:38:57;10.60;99.90
21787;DHT22;11055;50.870;4.316;2023-03-29T06:41:22;10.60;99.90
21787;DHT22;11055;50.870;4.316;2023-03-29T06:43:48;10.80;99.90
21787;DHT22;11055;50.870;4.316;2023-03-29T06:46:14;10.90;99.90
21787;DHT22;11055;50.870;4.316;2023-03-29T06:48:41;10.90;99.90
21787;DHT22;11055;50.870;4.316;2023-03-29T06:51:07;10.90;99.90
21787;DHT22;11055;50.870;4.316;2023-03-29T06:53:33;11.00;99.90
21787;DHT22;11055;50.870;4.316;2023-03-29T06:55:59;10.70;99.90
21787;DHT22;11055;50.870;4.316;2023-03-29T06:58:29;10.60;99.90
21787;DHT22;11055;50.870;4.316;2023-03-29T07:00:59;10.60;99.90
21787;DHT22;11055;50.870;4.316;2023-03-29T07:03:26;10.70;99.90
21787;DHT22;11055;50.870;4.316;2023-03-29T07:05:52;10.80;99.90
21787;DHT22;11055;50.870;4.316;2023-03-29T07:08:25;10.90;99.90
21787;DHT22;11055;50.870;4.316;2023-03-29T07:10:56;11.00;99.90
21787;DHT22;11055;50.870;4.316;2023-03-29T07:13:23;11.20;99.90
21787;DHT22;11055;50.870;4.316;2023-03-29T07:15:49;11.40;99.90
21787;DHT22;11055;50.870;4.316;2023-03-29T07:18:15;11.40;99.90
21787;DHT22;11055;50.870;4.316;2023-03-29T07:20:42;11.40;99.90
21787;DHT22;11055;50.870;4.316;2023-03-29T07:23:09;11.40;99.90
21787;DHT22;11055;50.870;4.316;2023-03-29T07:25:36;11.40;99.90
21787;DHT22;11055;50.870;4.316;2023-03-29T07:28:03;11.50;99.90
21787;DHT22;11055;50.870;4.316;2023-03-29T07:30:30;11.70;99.90
21787;DHT22;11055;50.870;4.316;2023-03-29T07:32:55;11.70;99.90
21787;DHT22;11055;50.870;4.316;2023-03-29T07:35:23;11.70;99.90
21787;DHT22;11055;50.870;4.316;2023-03-29T07:37:49;11.80;99.90
21787;DHT22;11055;50.870;4.316;2023-03-29T07:40:16;11.80;99.90
21787;DHT22;11055;50.870;4.316;2023-03-29T07:42:46;11.80;99.90
21787;DHT22;11055;50.870;4.316;2023-03-29T07:45:14;11.90;99.90
21787;DHT22;11055;50.870;4.316;2023-03-29T07:47:42;12.00;99.90
21787;DHT22;11055;50.870;4.316;2023-03-29T07:50:08;11.90;99.90
21787;DHT22;11055;50.870;4.316;2023-03-29T07:52:36;11.70;99.90
21787;DHT22;11055;50.870;4.316;2023-03-29T07:55:06;11.70;99.90
21787;DHT22;11055;50.870;4.316;2023-03-29T07:57:33;11.70;99.90
21787;DHT22;11055;50.870;4.316;2023-03-29T07:59:59;11.80;99.90
21787;DHT22;11055;50.870;4.316;2023-03-29T08:02:25;11.80;99.90
21787;DHT22;11055;50.870;4.316;2023-03-29T08:04:54;11.80;99.90
21787;DHT22;11055;50.870;4.316;2023-03-29T08:07:21;11.80;99.90
21787;DHT22;11055;50.870;4.316;2023-03-29T08:09:48;12.00;99.90
21787;DHT22;11055;50.870;4.316;2023-03-29T08:12:14;12.00;99.90
21787;DHT22;11055;50.870;4.316;2023-03-29T08:14:40;12.10;99.90
21787;DHT22;11055;50.870;4.316;2023-03-29T08:17:05;12.20;99.90
21787;DHT22;11055;50.870;4.316;2023-03-29T08:19:31;12.00;99.90
21787;DHT22;11055;50.870;4.316;2023-03-29T08:21:57;12.00;99.90
21787;DHT22;11055;50.870;4.316;2023-03-29T08:24:23;12.20;99.90
21787;DHT22;11055;50.870;4.316;2023-03-29T08:26:49;12.20;99.90
21787;DHT22;11055;50.870;4.316;2023-03-29T08:29:15;12.30;99.90
21787;DHT22;11055;50.870;4.316;2023-03-29T08:31:40;12.50;99.90
21787;DHT22;11055;50.870;4.316;2023-03-29T08:34:06;12.60;99.90
21787;DHT22;11055;50.870;4.316;2023-03-29T08:36:32;12.60;99.90
21787;DHT22;11055;50.870;4.316;2023-03-29T08:38:57;12.70;99.90
21787;DHT22;11055;50.870;4.316;2023-03-29T08:49:47;12.70;99.90
21787;DHT22;11055;50.870;4.316;2023-03-29T08:52:29;12.60;99.90
21787;DHT22;11055;50.870;4.316;2023-03-29T08:54:57;12.60;99.90
21787;DHT22;11055;50.870;4.316;2023-03-29T08:57:31;12.80;99.90
21787;DHT22;11055;50.870;4.316;2023-03-29T09:00:03;12.80;99.90
21787;DHT22;11055;50.870;4.316;2023-03-29T09:02:32;12.90;99.90
21787;DHT22;11055;50.870;4.316;2023-03-29T09:05:19;12.80;99.90
21787;DHT22;11055;50.870;4.316;2023-03-29T09:07:47;12.90;99.90
21787;DHT22;11055;50.870;4.316;2023-03-29T09:10:16;13.30;99.90
21787;DHT22;11055;50.870;4.316;2023-03-29T09:13:10;13.50;99.90
21787;DHT22;11055;50.870;4.316;2023-03-29T09:15:47;13.60;99.90
21787;DHT22;11055;50.870;4.316;2023-03-29T09:18:38;13.70;99.90
21787;DHT22;11055;50.870;4.316;2023-03-29T09:24:27;14.20;99.90
21787;DHT22;11055;50.870;4.316;2023-03-29T09:30:02;15.00;99.90
21787;DHT22;11055;50.870;4.316;2023-03-29T09:32:40;15.00;99.90
21787;DHT22;11055;50.870;4.316;2023-03-29T09:35:21;14.70;99.90
21787;DHT22;11055;50.870;4.316;2023-03-29T09:37:49;14.70;99.90
21787;DHT22;11055;50.870;4.316;2023-03-29T09:40:19;14.90;99.90
21787;DHT22;11055;50.870;4.316;2023-03-29T09:42:48;14.70;99.90
21787;DHT22;11055;50.870;4.316;2023-03-29T09:45:15;14.70;99.90
21787;DHT22;11055;50.870;4.316;2023-03-29T09:47:57;14.70;99.90
21787;DHT22;11055;50.870;4.316;2023-03-29T09:50:37;14.80;99.90
21787;DHT22;11055;50.870;4.316;2023-03-29T09:53:06;15.10;99.90
21787;DHT22;11055;50.870;4.316;2023-03-29T09:55:32;14.80;99.90
21787;DHT22;11055;50.870;4.316;2023-03-29T09:58:22;15.10;99.90
21787;DHT22;11055;50.870;4.316;2023-03-29T10:00:47;15.10;99.90
21787;DHT22;11055;50.870;4.316;2023-03-29T10:03:25;15.40;99.90
21787;DHT22;11055;50.870;4.316;2023-03-29T10:05:53;15.10;99.90
21787;DHT22;11055;50.870;4.316;2023-03-29T10:08:40;15.20;99.90
21787;DHT22;11055;50.870;4.316;2023-03-29T10:11:12;15.50;99.90
21787;DHT22;11055;50.870;4.316;2023-03-29T10:13:52;15.20;99.90
21787;DHT22;11055;50.870;4.316;2023-03-29T10:16:28;15.30;99.90
21787;DHT22;11055;50.870;4.316;2023-03-29T10:21:46;14.70;99.90
21787;DHT22;11055;50.870;4.316;2023-03-29T10:24:20;14.80;99.90
21787;DHT22;11055;50.870;4.316;2023-03-29T10:26:47;15.40;99.90
21787;DHT22;11055;50.870;4.316;2023-03-29T10:29:20;16.00;99.90
21787;DHT22;11055;50.870;4.316;2023-03-29T10:31:47;16.30;99.90
21787;DHT22;11055;50.870;4.316;2023-03-29T10:34:14;16.20;99.90
21787;DHT22;11055;50.870;4.316;2023-03-29T10:36:44;16.40;99.90
21787;DHT22;11055;50.870;4.316;2023-03-29T10:39:13;16.00;99.90
21787;DHT22;11055;50.870;4.316;2023-03-29T10:41:41;15.80;99.90
21787;DHT22;11055;50.870;4.316;2023-03-29T10:44:41;15.80;99.90
21787;DHT22;11055;50.870;4.316;2023-03-29T10:47:17;16.10;99.90
21787;DHT22;11055;50.870;4.316;2023-03-29T10:49:55;16.10;99.90
21787;DHT22;11055;50.870;4.316;2023-03-29T10:52:23;16.00;99.90
21787;DHT22;11055;50.870;4.316;2023-03-29T10:54:51;15.60;99.90
21787;DHT22;11055;50.870;4.316;2023-03-29T11:00:06;15.30;99.90
21787;DHT22;11055;50.870;4.316;2023-03-29T11:05:15;15.60;99.90
21787;DHT22;11055;50.870;4.316;2023-03-29T11:10:42;15.50;99.90
21787;DHT22;11055;50.870;4.316;2023-03-29T11:16:19;15.60;99.90
21787;DHT22;11055;50.870;4.316;2023-03-29T11:35:14;15.50;99.90
21787;DHT22;11055;50.870;4.316;2023-03-29T11:40:49;15.90;99.90
21787;DHT22;11055;50.870;4.316;2023-03-29T11:43:36;15.90;99.90
21787;DHT22;11055;50.870;4.316;2023-03-29T11:49:11;15.70;99.90
21787;DHT22;11055;50.870;4.316;2023-03-29T11:54:12;16.90;99.90
21787;DHT22;11055;50.870;4.316;2023-03-29T11:56:43;17.30;99.90
21787;DHT22;11055;50.870;4.316;2023-03-29T11:59:25;17.50;99.90
21787;DHT22;11055;50.870;4.316;2023-03-29T12:02:03;17.60;99.90
21787;DHT22;11055;50.870;4.316;2023-03-29T12:04:33;17.10;99.90
21787;DHT22;11055;50.870;4.316;2023-03-29T12:07:17;17.20;99.90
21787;DHT22;11055;50.870;4.316;2023-03-29T12:09:47;17.40;99.90
21787;DHT22;11055;50.870;4.316;2023-03-29T12:12:31;17.30;99.90
21787;DHT22;11055;50.870;4.316;2023-03-29T12:15:08;17.50;99.90
21787;DHT22;11055;50.870;4.316;2023-03-29T12:17:44;17.90;99.90
21787;DHT22;11055;50.870;4.316;2023-03-29T12:22:47;18.70;99.90
21787;DHT22;11055;50.870;4.316;2023-03-29T12:25:18;19.00;99.90
21787;DHT22;11055;50.870;4.316;2023-03-29T12:36:08;19.40;99.90
21787;DHT22;11055;50.870;4.316;2023-03-29T12:38:39;19.40;99.90
21787;DHT22;11055;50.870;4.316;2023-03-29T12:43:40;18.30;99.90
21787;DHT22;11055;50.870;4.316;2023-03-29T12:46:22;18.30;99.90
21787;DHT22;11055;50.870;4.316;2023-03-29T12:48:58;18.20;99.90
21787;DHT22;11055;50.870;4.316;2023-03-29T12:51:33;18.20;99.90
21787;DHT22;11055;50.870;4.316;2023-03-29T12:54:19;18.00;99.90
21787;DHT22;11055;50.870;4.316;2023-03-29T13:01:59;18.70;99.90
21787;DHT22;11055;50.870;4.316;2023-03-29T13:04:55;19.40;99.90
21787;DHT22;11055;50.870;4.316;2023-03-29T13:09:55;22.60;99.90
21787;DHT22;11055;50.870;4.316;2023-03-29T13:14:53;21.30;99.90
21787;DHT22;11055;50.870;4.316;2023-03-29T13:20:37;18.50;99.90
21787;DHT22;11055;50.870;4.316;2023-03-29T13:23:33;18.30;99.90
21787;DHT22;11055;50.870;4.316;2023-03-29T13:36:52;19.50;99.90
21787;DHT22;11055;50.870;4.316;2023-03-29T13:39:29;19.30;99.90
21787;DHT22;11055;50.870;4.316;2023-03-29T13:42:18;19.40;99.90
21787;DHT22;11055;50.870;4.316;2023-03-29T13:44:45;19.80;99.90
21787;DHT22;11055;50.870;4.316;2023-03-29T13:50:04;21.60;99.90
21787;DHT22;11055;50.870;4.316;2023-03-29T13:52:36;21.40;99.90
21787;DHT22;11055;50.870;4.316;2023-03-29T13:55:28;20.60;99.90
21787;DHT22;11055;50.870;4.316;2023-03-29T13:58:12;20.10;99.90
21787;DHT22;11055;50.870;4.316;2023-03-29T14:00:44;20.30;99.90
21787;DHT22;11055;50.870;4.316;2023-03-29T14:03:13;19.50;99.90
21787;DHT22;11055;50.870;4.316;2023-03-29T14:05:42;19.20;99.90
21787;DHT22;11055;50.870;4.316;2023-03-29T14:08:15;18.80;99.90
21787;DHT22;11055;50.870;4.316;2023-03-29T14:10:45;18.50;99.90
21787;DHT22;11055;50.870;4.316;2023-03-29T14:13:12;18.40;99.90
21787;DHT22;11055;50.870;4.316;2023-03-29T14:16:00;18.70;99.90
21787;DHT22;11055;50.870;4.316;2023-03-29T14:18:31;18.90;99.90
21787;DHT22;11055;50.870;4.316;2023-03-29T14:20:59;19.00;99.90
21787;DHT22;11055;50.870;4.316;2023-03-29T14:23:31;18.80;99.90
21787;DHT22;11055;50.870;4.316;2023-03-29T14:26:28;18.90;99.90
21787;DHT22;11055;50.870;4.316;2023-03-29T14:28:56;19.10;99.90
21787;DHT22;11055;50.870;4.316;2023-03-29T14:31:25;19.00;99.90
21787;DHT22;11055;50.870;4.316;2023-03-29T14:33:55;18.60;99.90
21787;DHT22;11055;50.870;4.316;2023-03-29T14:36:22;18.40;99.90
21787;DHT22;11055;50.870;4.316;2023-03-29T14:39:00;18.20;99.90
21787;DHT22;11055;50.870;4.316;2023-03-29T14:41:31;18.10;99.90
21787;DHT22;11055;50.870;4.316;2023-03-29T14:43:59;18.10;99.90
21787;DHT22;11055;50.870;4.316;2023-03-29T14:46:25;18.20;99.90
21787;DHT22;11055;50.870;4.316;2023-03-29T14:48:52;18.20;99.90
21787;DHT22;11055;50.870;4.316;2023-03-29T14:51:18;18.20;99.90
21787;DHT22;11055;50.870;4.316;2023-03-29T14:53:45;18.10;99.90
21787;DHT22;11055;50.870;4.316;2023-03-29T14:56:14;18.00;99.90
21787;DHT22;11055;50.870;4.316;2023-03-29T14:58:45;17.90;99.90
21787;DHT22;11055;50.870;4.316;2023-03-29T15:01:23;17.70;99.90
21787;DHT22;11055;50.870;4.316;2023-03-29T15:03:51;17.70;99.90
21787;DHT22;11055;50.870;4.316;2023-03-29T15:06:18;17.90;99.90
21787;DHT22;11055;50.870;4.316;2023-03-29T15:08:44;17.80;99.90
21787;DHT22;11055;50.870;4.316;2023-03-29T15:11:24;17.90;99.90
21787;DHT22;11055;50.870;4.316;2023-03-29T15:14:05;17.70;99.90
21787;DHT22;11055;50.870;4.316;2023-03-29T15:16:37;17.90;99.90
21787;DHT22;11055;50.870;4.316;2023-03-29T15:19:04;17.90;99.90
21787;DHT22;11055;50.870;4.316;2023-03-29T15:21:33;18.10;99.90
21787;DHT22;11055;50.870;4.316;2023-03-29T15:24:02;18.20;99.90
21787;DHT22;11055;50.870;4.316;2023-03-29T15:26:33;18.40;99.90
21787;DHT22;11055;50.870;4.316;2023-03-29T15:29:13;18.50;99.90
21787;DHT22;11055;50.870;4.316;2023-03-29T15:31:41;18.50;99.90
21787;DHT22;11055;50.870;4.316;2023-03-29T15:34:12;18.40;99.90
21787;DHT22;11055;50.870;4.316;2023-03-29T15:36:39;18.30;99.90
21787;DHT22;11055;50.870;4.316;2023-03-29T15:39:13;18.20;99.90
21787;DHT22;11055;50.870;4.316;2023-03-29T15:41:40;18.20;99.90
21787;DHT22;11055;50.870;4.316;2023-03-29T15:44:06;18.20;99.90
21787;DHT22;11055;50.870;4.316;2023-03-29T15:46:31;18.30;99.90
21787;DHT22;11055;50.870;4.316;2023-03-29T15:48:58;18.20;99.90
21787;DHT22;11055;50.870;4.316;2023-03-29T15:51:23;18.20;99.90
21787;DHT22;11055;50.870;4.316;2023-03-29T15:53:49;18.00;99.90
21787;DHT22;11055;50.870;4.316;2023-03-29T15:56:17;17.90;99.90
21787;DHT22;11055;50.870;4.316;2023-03-29T15:58:45;17.90;99.90
21787;DHT22;11055;50.870;4.316;2023-03-29T16:04:03;18.00;99.90
21787;DHT22;11055;50.870;4.316;2023-03-29T16:06:30;18.10;99.90
21787;DHT22;11055;50.870;4.316;2023-03-29T16:08:56;18.10;99.90
21787;DHT22;11055;50.870;4.316;2023-03-29T16:11:22;18.20;99.90
21787;DHT22;11055;50.870;4.316;2023-03-29T16:13:48;18.10;99.90
21787;DHT22;11055;50.870;4.316;2023-03-29T16:16:14;18.00;99.90
21787;DHT22;11055;50.870;4.316;2023-03-29T16:18:40;17.80;99.90
21787;DHT22;11055;50.870;4.316;2023-03-29T16:21:09;17.90;99.90
21787;DHT22;11055;50.870;4.316;2023-03-29T16:23:36;17.70;99.90
21787;DHT22;11055;50.870;4.316;2023-03-29T16:26:03;17.60;99.90
21787;DHT22;11055;50.870;4.316;2023-03-29T16:28:29;17.60;99.90
21787;DHT22;11055;50.870;4.316;2023-03-29T16:30:54;17.70;99.90
21787;DHT22;11055;50.870;4.316;2023-03-29T16:33:20;17.70;99.90
21787;DHT22;11055;50.870;4.316;2023-03-29T16:35:47;17.60;99.90
21787;DHT22;11055;50.870;4.316;2023-03-29T16:38:12;17.60;99.90
21787;DHT22;11055;50.870;4.316;2023-03-29T16:40:38;17.60;99.90
21787;DHT22;11055;50.870;4.316;2023-03-29T16:43:04;17.60;99.90
21787;DHT22;11055;50.870;4.316;2023-03-29T16:45:30;17.60;99.90
21787;DHT22;11055;50.870;4.316;2023-03-29T16:47:56;17.60;99.90
21787;DHT22;11055;50.870;4.316;2023-03-29T16:50:21;17.60;99.90
21787;DHT22;11055;50.870;4.316;2023-03-29T16:52:48;17.50;99.90
21787;DHT22;11055;50.870;4.316;2023-03-29T16:55:15;17.40;99.90
21787;DHT22;11055;50.870;4.316;2023-03-29T16:57:43;17.40;99.90
21787;DHT22;11055;50.870;4.316;2023-03-29T17:00:11;17.30;99.90
21787;DHT22;11055;50.870;4.316;2023-03-29T17:02:43;17.30;99.90
21787;DHT22;11055;50.870;4.316;2023-03-29T17:05:10;17.30;99.90
21787;DHT22;11055;50.870;4.316;2023-03-29T17:07:37;17.30;99.90
21787;DHT22;11055;50.870;4.316;2023-03-29T17:10:07;17.30;99.90
21787;DHT22;11055;50.870;4.316;2023-03-29T17:12:33;17.40;99.90
21787;DHT22;11055;50.870;4.316;2023-03-29T17:14:59;17.40;99.90
21787;DHT22;11055;50.870;4.316;2023-03-29T17:17:25;17.40;99.90
21787;DHT22;11055;50.870;4.316;2023-03-29T17:19:51;17.30;99.90
21787;DHT22;11055;50.870;4.316;2023-03-29T17:22:18;17.20;99.90
21787;DHT22;11055;50.870;4.316;2023-03-29T17:24:43;17.10;99.90
21787;DHT22;11055;50.870;4.316;2023-03-29T17:27:09;17.10;99.90
21787;DHT22;11055;50.870;4.316;2023-03-29T17:29:35;17.20;99.90
21787;DHT22;11055;50.870;4.316;2023-03-29T17:32:00;17.20;99.90
21787;DHT22;11055;50.870;4.316;2023-03-29T17:34:26;17.10;99.90
21787;DHT22;11055;50.870;4.316;2023-03-29T17:36:54;17.10;99.90
21787;DHT22;11055;50.870;4.316;2023-03-29T17:39:20;17.20;99.90
21787;DHT22;11055;50.870;4.316;2023-03-29T17:41:46;17.30;99.90